Time;durP1;ratioP1;P1;durP2;ratioP2;P2;SDS_P1;SDS_P2;PMS_P1;PMS_P2;Temp;Humidity;BMP_temperature;BMP_pressure;BME280_temperature;BME280_humidity;BME280_pressure;Samples;Min_cycle;Max_cycle;Signal;HPM_P1;HPM_P2
2021/12/10 00:02:06;;;;;;;57.15;34.38;;;;;;;;;;5024848;28;20060;-80
2021/12/10 00:04:34;;;;;;;57.53;31.75;;;;;;;;;;5026377;28;20193;-81
2021/12/10 00:07:02;;;;;;;60.42;32.92;;;;;;;;;;5029766;28;20048;-80
2021/12/10 00:09:40;;;;;;;62.00;34.42;;;;;;;;;;5041384;28;20060;-81
2021/12/10 00:12:09;;;;;;;65.43;35.40;;;;;;;;;;5012358;28;20088;-81
2021/12/10 00:14:36;;;;;;;62.20;35.20;;;;;;;;;;5026482;28;20038;-81
2021/12/10 00:17:04;;;;;;;62.92;34.22;;;;;;;;;;5037003;28;20055;-81
2021/12/10 00:19:53;;;;;;;65.00;37.92;;;;;;;;;;5024333;28;20378;-81
2021/12/10 00:22:27;;;;;;;64.80;35.53;;;;;;;;;;5029408;28;20055;-82
2021/12/10 00:24:54;;;;;;;67.05;36.35;;;;;;;;;;5037818;28;20041;-81
2021/12/10 00:27:27;;;;;;;67.88;37.40;;;;;;;;;;5028959;28;20041;-82
2021/12/10 00:30:02;;;;;;;62.78;36.05;;;;;;;;;;5040452;28;20045;-81
2021/12/10 00:32:34;;;;;;;58.40;35.97;;;;;;;;;;5033951;28;20488;-82
2021/12/10 00:35:02;;;;;;;68.22;34.60;;;;;;;;;;5037558;28;20037;-81
2021/12/10 00:37:29;;;;;;;72.85;36.78;;;;;;;;;;5044961;28;20125;-82
2021/12/10 00:39:57;;;;;;;66.15;37.20;;;;;;;;;;5039669;28;20048;-82
2021/12/10 00:42:25;;;;;;;63.50;35.53;;;;;;;;;;5033198;28;20046;-82
2021/12/10 00:44:52;;;;;;;66.97;37.25;;;;;;;;;;5028984;28;20528;-82
2021/12/10 00:47:18;;;;;;;65.15;36.55;;;;;;;;;;5032482;28;20223;-82
2021/12/10 00:49:44;;;;;;;67.10;37.17;;;;;;;;;;5017298;28;20044;-82
2021/12/10 00:52:12;;;;;;;65.80;37.03;;;;;;;;;;5029238;28;20421;-81
2021/12/10 00:54:38;;;;;;;69.28;36.13;;;;;;;;;;5030532;28;20037;-81
2021/12/10 00:57:06;;;;;;;63.42;36.13;;;;;;;;;;5031770;28;20662;-82
2021/12/10 00:59:32;;;;;;;68.10;34.97;;;;;;;;;;5023382;28;20052;-82
2021/12/10 01:01:58;;;;;;;64.70;35.75;;;;;;;;;;5037224;28;20467;-82
2021/12/10 01:04:27;;;;;;;70.10;36.22;;;;;;;;;;5030980;28;20044;-81
2021/12/10 01:06:54;;;;;;;62.75;35.50;;;;;;;;;;5038550;28;20033;-82
2021/12/10 01:09:22;;;;;;;69.80;36.38;;;;;;;;;;5041979;28;20493;-81
2021/12/10 01:11:54;;;;;;;66.63;36.17;;;;;;;;;;5026653;28;20121;-81
2021/12/10 01:14:30;;;;;;;68.90;37.58;;;;;;;;;;5023576;28;20048;-81
2021/12/10 01:25:32;;;;;;;81.90;40.95;;;;;;;;;;5029115;28;20171;-81
2021/12/10 01:27:58;;;;;;;69.50;38.22;;;;;;;;;;5029568;28;20099;-81
2021/12/10 01:30:26;;;;;;;77.93;39.50;;;;;;;;;;5012329;28;20037;-81
2021/12/10 01:32:55;;;;;;;69.30;40.53;;;;;;;;;;5020880;28;20060;-81
2021/12/10 01:35:23;;;;;;;69.95;39.83;;;;;;;;;;5027646;28;20033;-82
2021/12/10 01:37:50;;;;;;;66.45;39.42;;;;;;;;;;5040917;28;20060;-82
2021/12/10 01:40:20;;;;;;;69.53;38.00;;;;;;;;;;5011851;28;20068;-82
2021/12/10 01:42:49;;;;;;;70.60;38.67;;;;;;;;;;5029700;28;20057;-81
2021/12/10 01:45:21;;;;;;;67.28;39.17;;;;;;;;;;5025822;28;20037;-81
2021/12/10 01:47:52;;;;;;;66.82;38.97;;;;;;;;;;5034932;28;20506;-82
2021/12/10 01:50:18;;;;;;;67.40;36.08;;;;;;;;;;5039793;28;20520;-82
2021/12/10 01:52:48;;;;;;;65.97;36.95;;;;;;;;;;5033606;28;20038;-82
2021/12/10 01:55:19;;;;;;;70.32;38.67;;;;;;;;;;5033852;28;20046;-82
2021/12/10 01:57:45;;;;;;;55.40;35.88;;;;;;;;;;5010837;28;20041;-82
2021/12/10 02:00:12;;;;;;;62.55;38.53;;;;;;;;;;5026545;28;20123;-81
2021/12/10 02:02:41;;;;;;;60.92;38.00;;;;;;;;;;5033025;28;20033;-81
2021/12/10 02:05:07;;;;;;;63.10;35.50;;;;;;;;;;5035843;28;20121;-82
2021/12/10 02:07:33;;;;;;;69.22;37.42;;;;;;;;;;5027760;28;20080;-81
2021/12/10 02:09:59;;;;;;;68.63;36.22;;;;;;;;;;5030015;28;20497;-81
2021/12/10 02:12:25;;;;;;;66.78;36.60;;;;;;;;;;5026098;28;20056;-81
2021/12/10 02:15:00;;;;;;;64.43;38.08;;;;;;;;;;5009419;28;20080;-81
2021/12/10 02:17:27;;;;;;;63.75;37.67;;;;;;;;;;5038935;28;20069;-81
2021/12/10 02:19:54;;;;;;;62.92;36.63;;;;;;;;;;5044549;28;20040;-81
2021/12/10 02:22:20;;;;;;;67.82;38.58;;;;;;;;;;5023681;28;20503;-81
2021/12/10 02:24:46;;;;;;;68.63;38.75;;;;;;;;;;5036026;28;20477;-81
2021/12/10 02:27:12;;;;;;;67.00;39.65;;;;;;;;;;5030251;28;20052;-81
2021/12/10 02:29:40;;;;;;;70.75;39.03;;;;;;;;;;5042123;28;20029;-81
2021/12/10 02:32:10;;;;;;;71.63;38.00;;;;;;;;;;5031846;28;20040;-81
2021/12/10 02:34:36;;;;;;;63.97;36.13;;;;;;;;;;5026970;28;20517;-80
2021/12/10 02:37:03;;;;;;;65.70;35.35;;;;;;;;;;5042130;28;20195;-81
2021/12/10 02:39:29;;;;;;;66.10;36.70;;;;;;;;;;5047400;28;20515;-81
2021/12/10 02:41:56;;;;;;;68.32;35.40;;;;;;;;;;5043088;28;20095;-81
2021/12/10 02:44:23;;;;;;;75.53;36.20;;;;;;;;;;5017897;28;20037;-81
2021/12/10 02:46:50;;;;;;;61.97;36.03;;;;;;;;;;5033557;28;20033;-81
2021/12/10 02:49:17;;;;;;;62.25;34.35;;;;;;;;;;5032389;28;20114;-81
2021/12/10 02:51:44;;;;;;;61.17;35.75;;;;;;;;;;5027887;28;20102;-81
2021/12/10 02:54:11;;;;;;;58.20;34.08;;;;;;;;;;5040749;28;20056;-81
2021/12/10 02:56:39;;;;;;;56.40;33.40;;;;;;;;;;5038804;28;20052;-81
2021/12/10 02:59:05;;;;;;;63.13;35.03;;;;;;;;;;5024438;28;20520;-81
2021/12/10 03:01:34;;;;;;;62.75;35.42;;;;;;;;;;5034945;28;20114;-81
2021/12/10 03:04:00;;;;;;;58.47;32.80;;;;;;;;;;5038791;28;20778;-81
2021/12/10 03:06:27;;;;;;;63.65;33.88;;;;;;;;;;5037982;28;20124;-81
2021/12/10 03:08:54;;;;;;;65.53;35.88;;;;;;;;;;5040721;28;20060;-81
2021/12/10 03:11:23;;;;;;;58.45;34.53;;;;;;;;;;5029734;28;20048;-82
2021/12/10 03:13:49;;;;;;;58.17;35.25;;;;;;;;;;5034833;28;20038;-81
2021/12/10 03:16:16;;;;;;;60.80;34.78;;;;;;;;;;5039240;28;20040;-81
2021/12/10 03:18:42;;;;;;;66.40;34.50;;;;;;;;;;5029424;28;20400;-81
2021/12/10 03:21:09;;;;;;;59.58;33.60;;;;;;;;;;5032617;28;20053;-81
2021/12/10 03:23:42;;;;;;;58.78;33.30;;;;;;;;;;5031919;28;20156;-81
2021/12/10 03:26:09;;;;;;;56.00;29.60;;;;;;;;;;5035454;28;20448;-81
2021/12/10 03:28:35;;;;;;;50.72;30.15;;;;;;;;;;5032890;28;20151;-81
2021/12/10 03:31:01;;;;;;;49.05;28.65;;;;;;;;;;5025020;28;20812;-81
2021/12/10 03:33:27;;;;;;;53.53;29.25;;;;;;;;;;5016334;28;20656;-82
2021/12/10 03:35:53;;;;;;;50.22;27.73;;;;;;;;;;5030330;28;20043;-81
2021/12/10 03:38:21;;;;;;;46.35;27.52;;;;;;;;;;5035091;28;20129;-81
2021/12/10 03:40:48;;;;;;;48.60;26.45;;;;;;;;;;5029604;28;20420;-81
2021/12/10 03:43:15;;;;;;;47.72;26.80;;;;;;;;;;5028582;28;20111;-81
2021/12/10 03:45:44;;;;;;;48.15;26.83;;;;;;;;;;5036892;28;20049;-82
2021/12/10 03:48:11;;;;;;;50.72;27.70;;;;;;;;;;5032006;28;20065;-81
2021/12/10 03:50:38;;;;;;;43.97;28.60;;;;;;;;;;5032962;28;20045;-80
2021/12/10 03:53:05;;;;;;;46.28;25.48;;;;;;;;;;5018591;28;20080;-81
2021/12/10 03:55:31;;;;;;;48.65;26.15;;;;;;;;;;5027133;28;20095;-81
2021/12/10 03:57:58;;;;;;;44.55;25.88;;;;;;;;;;5030906;28;20053;-81
2021/12/10 04:00:26;;;;;;;41.70;25.92;;;;;;;;;;5031191;28;20034;-80
2021/12/10 04:02:53;;;;;;;50.17;27.20;;;;;;;;;;5038323;28;20053;-81
2021/12/10 04:05:19;;;;;;;44.10;26.48;;;;;;;;;;5031935;28;20110;-81
2021/12/10 04:07:45;;;;;;;44.95;27.08;;;;;;;;;;5028294;28;20432;-81
2021/12/10 04:10:12;;;;;;;53.50;26.30;;;;;;;;;;5025709;28;20044;-81
2021/12/10 04:12:38;;;;;;;46.88;24.25;;;;;;;;;;5027111;28;20103;-81
2021/12/10 04:15:05;;;;;;;50.20;27.15;;;;;;;;;;5029789;28;20030;-81
2021/12/10 04:17:31;;;;;;;35.03;22.67;;;;;;;;;;5042287;28;20428;-81
2021/12/10 04:19:57;;;;;;;48.10;22.92;;;;;;;;;;5035075;28;20079;-81
2021/12/10 04:22:24;;;;;;;40.35;21.52;;;;;;;;;;5032101;28;20100;-81
2021/12/10 04:24:52;;;;;;;43.63;21.42;;;;;;;;;;5035854;28;20052;-81
2021/12/10 04:27:18;;;;;;;43.90;22.50;;;;;;;;;;5029010;28;20397;-81
2021/12/10 04:29:45;;;;;;;30.70;20.88;;;;;;;;;;5031657;28;20079;-81
2021/12/10 04:32:12;;;;;;;50.28;21.85;;;;;;;;;;5029170;28;20683;-81
2021/12/10 04:34:38;;;;;;;40.65;21.17;;;;;;;;;;5020364;28;20115;-82
2021/12/10 04:37:06;;;;;;;29.23;20.17;;;;;;;;;;5035171;28;20040;-81
2021/12/10 04:39:34;;;;;;;44.88;20.48;;;;;;;;;;5032778;28;20516;-81
2021/12/10 04:42:00;;;;;;;38.13;20.00;;;;;;;;;;5007318;28;20417;-81
2021/12/10 04:44:27;;;;;;;36.47;20.10;;;;;;;;;;5017120;28;20306;-81
2021/12/10 04:46:53;;;;;;;37.17;22.35;;;;;;;;;;5030449;28;20048;-81
2021/12/10 04:49:19;;;;;;;36.10;21.83;;;;;;;;;;5035803;28;20053;-81
2021/12/10 04:51:48;;;;;;;37.05;21.50;;;;;;;;;;5022999;28;20464;-81
2021/12/10 04:54:15;;;;;;;39.13;21.08;;;;;;;;;;5022894;28;20099;-79
2021/12/10 04:56:42;;;;;;;37.75;22.98;;;;;;;;;;5021767;28;20041;-80
2021/12/10 04:59:10;;;;;;;40.70;23.02;;;;;;;;;;5038764;28;20091;-81
2021/12/10 05:01:36;;;;;;;38.20;23.20;;;;;;;;;;5019684;28;20038;-80
2021/12/10 05:04:04;;;;;;;44.83;24.25;;;;;;;;;;5015272;28;20420;-80
2021/12/10 05:06:31;;;;;;;41.35;22.52;;;;;;;;;;5017632;28;20059;-80
2021/12/10 05:08:57;;;;;;;37.95;22.67;;;;;;;;;;5009042;28;20080;-81
2021/12/10 05:11:23;;;;;;;42.78;23.10;;;;;;;;;;5025037;28;20095;-84
2021/12/10 05:13:49;;;;;;;44.78;23.17;;;;;;;;;;5021576;28;20046;-81
2021/12/10 05:16:16;;;;;;;40.85;25.13;;;;;;;;;;5007639;28;20056;-81
2021/12/10 05:18:45;;;;;;;40.33;25.67;;;;;;;;;;5020656;28;20053;-81
2021/12/10 05:21:14;;;;;;;39.25;25.13;;;;;;;;;;5022876;28;20057;-81
2021/12/10 05:23:40;;;;;;;45.33;25.83;;;;;;;;;;5019828;28;20041;-81
2021/12/10 05:26:06;;;;;;;39.63;26.98;;;;;;;;;;5024844;28;20654;-81
2021/12/10 05:28:32;;;;;;;38.00;24.40;;;;;;;;;;5040644;28;20046;-81
2021/12/10 05:30:59;;;;;;;45.38;26.23;;;;;;;;;;5015539;28;20417;-81
2021/12/10 05:33:26;;;;;;;49.35;26.33;;;;;;;;;;5016332;28;20063;-80
2021/12/10 05:35:53;;;;;;;45.88;28.98;;;;;;;;;;5005480;28;20132;-81
2021/12/10 05:38:22;;;;;;;41.78;28.38;;;;;;;;;;5020240;28;20069;-81
2021/12/10 05:40:49;;;;;;;51.28;31.08;;;;;;;;;;5004554;28;20121;-80
2021/12/10 05:43:15;;;;;;;54.97;33.95;;;;;;;;;;5015932;28;20485;-81
2021/12/10 05:45:42;;;;;;;56.70;37.45;;;;;;;;;;5025163;28;20033;-81
2021/12/10 05:48:08;;;;;;;62.58;36.00;;;;;;;;;;5026000;28;20569;-80
2021/12/10 05:50:35;;;;;;;54.25;36.30;;;;;;;;;;5020760;28;20516;-80
2021/12/10 05:53:01;;;;;;;61.03;35.65;;;;;;;;;;5025190;28;20060;-80
2021/12/10 05:55:27;;;;;;;55.17;32.58;;;;;;;;;;5024656;28;20840;-80
2021/12/10 05:57:54;;;;;;;64.50;36.38;;;;;;;;;;4988784;28;20046;-80
2021/12/10 06:00:23;;;;;;;61.83;38.47;;;;;;;;;;5020425;28;20049;-80
2021/12/10 06:02:49;;;;;;;63.53;36.53;;;;;;;;;;5011504;28;20137;-81
2021/12/10 06:05:15;;;;;;;50.65;31.55;;;;;;;;;;5019186;28;20042;-81
2021/12/10 06:07:41;;;;;;;50.78;30.95;;;;;;;;;;5007183;28;20132;-81
2021/12/10 06:10:09;;;;;;;45.03;30.52;;;;;;;;;;5017677;28;20050;-80
2021/12/10 06:12:36;;;;;;;45.20;30.35;;;;;;;;;;5022966;28;20111;-81
2021/12/10 06:15:03;;;;;;;44.00;30.33;;;;;;;;;;5023042;28;20104;-80
2021/12/10 06:17:30;;;;;;;52.42;30.73;;;;;;;;;;5021014;28;20045;-81
2021/12/10 06:19:56;;;;;;;48.42;32.03;;;;;;;;;;5023617;28;20109;-81
2021/12/10 06:22:22;;;;;;;49.40;31.55;;;;;;;;;;5023601;28;20128;-81
2021/12/10 06:24:48;;;;;;;49.17;29.90;;;;;;;;;;5038617;28;20463;-81
2021/12/10 06:27:14;;;;;;;49.83;32.35;;;;;;;;;;5022996;28;20041;-80
2021/12/10 06:29:42;;;;;;;47.95;31.05;;;;;;;;;;5038740;28;20049;-80
2021/12/10 06:32:09;;;;;;;54.03;32.15;;;;;;;;;;5020380;28;20041;-81
2021/12/10 06:34:35;;;;;;;60.55;32.38;;;;;;;;;;5039082;28;20136;-80
2021/12/10 06:37:01;;;;;;;46.20;31.45;;;;;;;;;;5023606;28;20046;-80
2021/12/10 06:39:27;;;;;;;41.25;28.55;;;;;;;;;;5022624;28;20046;-80
2021/12/10 06:41:54;;;;;;;38.47;28.15;;;;;;;;;;5022081;28;20053;-81
2021/12/10 06:44:21;;;;;;;43.95;27.13;;;;;;;;;;5023104;28;20041;-81
2021/12/10 06:46:47;;;;;;;39.25;26.08;;;;;;;;;;5023243;28;20512;-80
2021/12/10 06:49:14;;;;;;;44.22;26.70;;;;;;;;;;5022672;28;20045;-81
2021/12/10 06:51:41;;;;;;;44.40;29.35;;;;;;;;;;5021785;28;20053;-81
2021/12/10 06:54:07;;;;;;;38.05;26.83;;;;;;;;;;5039277;28;20456;-81
2021/12/10 06:56:35;;;;;;;40.95;26.77;;;;;;;;;;5022580;28;20045;-82
2021/12/10 06:59:06;;;;;;;38.78;24.63;;;;;;;;;;5021848;28;20044;-82
2021/12/10 07:01:34;;;;;;;34.10;24.17;;;;;;;;;;5025489;28;20057;-82
2021/12/10 07:04:04;;;;;;;33.63;23.67;;;;;;;;;;5024996;28;20053;-81
2021/12/10 07:06:31;;;;;;;41.75;24.75;;;;;;;;;;5027436;28;20469;-82
2021/12/10 07:08:58;;;;;;;31.10;22.92;;;;;;;;;;5024544;28;20049;-82
2021/12/10 07:11:25;;;;;;;29.98;22.38;;;;;;;;;;5027920;28;20874;-80
2021/12/10 07:13:53;;;;;;;32.58;22.92;;;;;;;;;;5031564;28;20046;-82
2021/12/10 07:16:21;;;;;;;37.88;23.00;;;;;;;;;;5035210;28;20034;-81
2021/12/10 07:18:48;;;;;;;34.53;22.27;;;;;;;;;;5029873;28;20048;-82
2021/12/10 07:21:14;;;;;;;32.60;21.95;;;;;;;;;;5026833;28;20114;-81
2021/12/10 07:23:42;;;;;;;31.38;20.00;;;;;;;;;;5027431;28;20053;-81
2021/12/10 07:26:09;;;;;;;29.10;20.35;;;;;;;;;;5024434;28;20049;-81
2021/12/10 07:28:35;;;;;;;30.35;20.63;;;;;;;;;;5027095;28;20103;-81
2021/12/10 07:31:02;;;;;;;30.05;20.10;;;;;;;;;;5026475;28;20080;-82
2021/12/10 07:33:28;;;;;;;25.70;19.48;;;;;;;;;;5024887;28;20115;-82
2021/12/10 07:35:55;;;;;;;30.20;19.80;;;;;;;;;;5025548;28;20557;-82
2021/12/10 07:38:21;;;;;;;32.50;18.45;;;;;;;;;;5023600;28;20042;-81
2021/12/10 07:40:48;;;;;;;28.27;18.00;;;;;;;;;;5037873;28;20129;-81
2021/12/10 07:43:14;;;;;;;25.73;18.02;;;;;;;;;;5025323;28;20049;-82
2021/12/10 07:45:41;;;;;;;26.60;17.40;;;;;;;;;;5028151;28;20037;-81
2021/12/10 07:48:09;;;;;;;25.90;18.23;;;;;;;;;;5028334;28;20536;-82
2021/12/10 07:50:38;;;;;;;20.67;15.52;;;;;;;;;;5029013;28;20103;-81
2021/12/10 07:53:04;;;;;;;25.25;15.30;;;;;;;;;;5028778;28;20050;-82
2021/12/10 07:55:32;;;;;;;24.10;15.65;;;;;;;;;;5027472;28;20042;-81
2021/12/10 07:57:58;;;;;;;25.05;15.88;;;;;;;;;;5048004;28;20060;-82
2021/12/10 08:00:25;;;;;;;20.10;15.02;;;;;;;;;;5045505;28;20083;-83
2021/12/10 08:02:52;;;;;;;20.67;14.95;;;;;;;;;;5028888;28;20537;-82
2021/12/10 08:05:19;;;;;;;22.77;13.30;;;;;;;;;;5046610;28;20114;-82
2021/12/10 08:07:45;;;;;;;23.38;14.45;;;;;;;;;;5030688;28;20050;-82
2021/12/10 08:10:11;;;;;;;19.30;13.80;;;;;;;;;;5027103;28;20042;-82
2021/12/10 08:12:38;;;;;;;24.63;15.48;;;;;;;;;;5038441;28;20048;-83
2021/12/10 08:15:05;;;;;;;32.30;16.45;;;;;;;;;;5046124;28;20480;-83
2021/12/10 08:17:31;;;;;;;23.88;16.70;;;;;;;;;;5032229;28;20053;-82
2021/12/10 08:19:58;;;;;;;28.88;18.25;;;;;;;;;;5027570;28;20080;-81
2021/12/10 08:22:25;;;;;;;26.90;17.20;;;;;;;;;;5036903;28;20124;-82
2021/12/10 08:24:51;;;;;;;27.88;18.00;;;;;;;;;;5045369;28;20483;-83
2021/12/10 08:27:17;;;;;;;28.52;16.98;;;;;;;;;;5035390;28;20034;-83
2021/12/10 08:29:44;;;;;;;25.77;16.27;;;;;;;;;;5043168;28;20037;-82
2021/12/10 08:32:13;;;;;;;25.73;15.75;;;;;;;;;;5044322;28;20103;-82
2021/12/10 08:34:39;;;;;;;28.90;17.05;;;;;;;;;;5033137;28;20053;-83
2021/12/10 08:37:06;;;;;;;26.60;17.42;;;;;;;;;;5030678;28;20117;-83
2021/12/10 08:39:32;;;;;;;24.05;16.75;;;;;;;;;;5033537;28;20045;-83
2021/12/10 08:41:59;;;;;;;30.15;19.00;;;;;;;;;;5026974;28;20400;-82
2021/12/10 08:44:26;;;;;;;25.88;17.33;;;;;;;;;;5028485;28;20069;-83
2021/12/10 08:46:53;;;;;;;28.60;18.67;;;;;;;;;;5034263;28;20040;-82
2021/12/10 08:49:19;;;;;;;29.30;19.10;;;;;;;;;;5035441;28;20041;-83
2021/12/10 08:51:50;;;;;;;26.38;18.98;;;;;;;;;;5037309;28;20462;-82
2021/12/10 08:54:17;;;;;;;29.65;20.40;;;;;;;;;;5037974;28;20041;-83
2021/12/10 08:56:46;;;;;;;29.05;18.05;;;;;;;;;;5026099;28;20040;-83
2021/12/10 08:59:13;;;;;;;32.67;19.50;;;;;;;;;;5038203;28;20029;-82
2021/12/10 09:01:42;;;;;;;26.77;16.60;;;;;;;;;;5043847;28;20044;-79
2021/12/10 09:04:08;;;;;;;25.40;17.38;;;;;;;;;;5042952;28;20044;-79
2021/12/10 09:06:37;;;;;;;24.50;16.85;;;;;;;;;;5039977;28;21081;-79
2021/12/10 09:09:05;;;;;;;25.85;18.00;;;;;;;;;;5028052;28;20138;-79
2021/12/10 09:11:31;;;;;;;24.20;15.95;;;;;;;;;;5043441;28;20033;-78
2021/12/10 09:13:58;;;;;;;23.25;15.15;;;;;;;;;;5037554;28;20052;-78
2021/12/10 09:16:27;;;;;;;24.00;15.57;;;;;;;;;;5039460;28;20042;-78
2021/12/10 09:19:01;;;;;;;23.20;15.85;;;;;;;;;;5041570;28;20053;-80
2021/12/10 09:21:27;;;;;;;22.90;14.70;;;;;;;;;;5043764;28;20049;-78
2021/12/10 09:23:57;;;;;;;23.25;15.32;;;;;;;;;;5043687;28;20044;-79
2021/12/10 09:26:27;;;;;;;23.30;16.02;;;;;;;;;;5030004;28;20057;-79
2021/12/10 09:28:53;;;;;;;20.20;12.60;;;;;;;;;;5025526;28;20041;-80
2021/12/10 09:31:24;;;;;;;18.58;15.07;;;;;;;;;;5042661;28;20045;-80
2021/12/10 09:33:51;;;;;;;20.52;15.57;;;;;;;;;;5035835;28;20052;-81
2021/12/10 09:36:17;;;;;;;25.10;14.77;;;;;;;;;;5012526;28;20033;-81
2021/12/10 09:38:44;;;;;;;22.65;16.05;;;;;;;;;;5040417;28;20037;-81
2021/12/10 09:41:11;;;;;;;21.50;15.77;;;;;;;;;;5026147;28;20056;-82
2021/12/10 09:43:37;;;;;;;23.75;15.73;;;;;;;;;;5024341;28;20049;-82
2021/12/10 09:46:04;;;;;;;20.25;15.77;;;;;;;;;;5038643;28;20029;-82
2021/12/10 09:48:31;;;;;;;20.42;13.82;;;;;;;;;;5022473;28;20103;-82
2021/12/10 09:51:20;;;;;;;22.10;15.07;;;;;;;;;;5036843;28;20041;-82
2021/12/10 09:53:49;;;;;;;22.30;14.10;;;;;;;;;;5020306;28;20060;-82
2021/12/10 09:56:16;;;;;;;21.55;14.93;;;;;;;;;;5028222;28;20050;-82
2021/12/10 09:58:42;;;;;;;22.27;15.43;;;;;;;;;;5028236;28;20075;-81
2021/12/10 10:01:11;;;;;;;22.35;15.80;;;;;;;;;;5028901;28;20129;-82
2021/12/10 10:03:40;;;;;;;21.27;14.85;;;;;;;;;;5026450;28;20042;-81
2021/12/10 10:06:07;;;;;;;24.42;14.82;;;;;;;;;;5045015;28;20419;-81
2021/12/10 10:08:34;;;;;;;19.10;13.40;;;;;;;;;;5045217;28;20515;-82
2021/12/10 10:11:06;;;;;;;21.95;13.98;;;;;;;;;;5044922;28;20045;-82
2021/12/10 10:13:35;;;;;;;19.10;12.73;;;;;;;;;;5028465;28;20041;-82
2021/12/10 10:16:01;;;;;;;19.77;13.00;;;;;;;;;;5046362;28;20041;-81
2021/12/10 10:18:30;;;;;;;19.75;12.38;;;;;;;;;;5045489;28;20029;-82
2021/12/10 10:20:59;;;;;;;17.17;11.05;;;;;;;;;;5046266;28;20512;-84
2021/12/10 10:23:26;;;;;;;17.38;10.52;;;;;;;;;;5045494;28;20404;-84
2021/12/10 10:25:54;;;;;;;20.08;8.88;;;;;;;;;;5012832;28;20033;-82
2021/12/10 10:28:21;;;;;;;13.02;8.77;;;;;;;;;;5025228;28;20130;-82
2021/12/10 10:30:53;;;;;;;14.73;8.50;;;;;;;;;;5008076;28;20071;-82
2021/12/10 10:33:20;;;;;;;13.63;8.75;;;;;;;;;;5025683;28;20100;-83
2021/12/10 10:35:49;;;;;;;16.88;8.55;;;;;;;;;;5025735;28;20063;-82
2021/12/10 10:38:19;;;;;;;13.93;9.00;;;;;;;;;;5030331;28;20092;-83
2021/12/10 10:40:47;;;;;;;17.17;9.52;;;;;;;;;;5027990;28;20045;-82
2021/12/10 10:43:13;;;;;;;12.27;7.80;;;;;;;;;;5028271;28;20069;-82
2021/12/10 10:45:42;;;;;;;15.82;8.05;;;;;;;;;;5028817;28;20061;-81
2021/12/10 10:48:11;;;;;;;14.85;8.63;;;;;;;;;;5029074;28;20080;-80
2021/12/10 10:50:47;;;;;;;16.98;8.88;;;;;;;;;;5028646;28;20057;-81
2021/12/10 10:53:15;;;;;;;12.68;8.52;;;;;;;;;;5027934;28;20061;-81
2021/12/10 10:55:48;;;;;;;11.98;8.48;;;;;;;;;;5030071;28;20094;-81
2021/12/10 10:58:15;;;;;;;12.77;8.47;;;;;;;;;;5029007;28;20558;-82
2021/12/10 11:00:52;;;;;;;13.77;9.18;;;;;;;;;;5029152;28;20041;-82
2021/12/10 11:03:23;;;;;;;12.23;8.40;;;;;;;;;;5029841;28;20046;-81
2021/12/10 11:05:55;;;;;;;13.82;8.30;;;;;;;;;;5027587;28;20049;-81
2021/12/10 11:08:32;;;;;;;11.23;8.95;;;;;;;;;;5029783;28;20042;-81
2021/12/10 11:11:16;;;;;;;11.90;8.93;;;;;;;;;;5039493;28;20056;-82
2021/12/10 11:13:44;;;;;;;15.48;9.10;;;;;;;;;;5048695;28;20044;-81
2021/12/10 11:16:12;;;;;;;12.00;8.50;;;;;;;;;;5047875;28;20089;-82
2021/12/10 11:18:46;;;;;;;12.43;8.30;;;;;;;;;;5047463;28;20432;-82
2021/12/10 11:21:12;;;;;;;10.88;8.02;;;;;;;;;;5035730;28;20080;-82
2021/12/10 11:23:39;;;;;;;13.32;8.40;;;;;;;;;;5027885;28;20046;-83
2021/12/10 11:26:07;;;;;;;10.63;8.02;;;;;;;;;;5027917;28;20048;-81
2021/12/10 11:28:34;;;;;;;11.05;8.00;;;;;;;;;;5028640;28;20094;-83
2021/12/10 11:31:03;;;;;;;11.38;8.38;;;;;;;;;;5039980;28;20037;-82
2021/12/10 11:33:31;;;;;;;13.23;7.78;;;;;;;;;;5048715;28;20045;-83
2021/12/10 11:35:59;;;;;;;12.13;8.25;;;;;;;;;;5047699;28;20045;-83
2021/12/10 11:38:29;;;;;;;11.60;8.00;;;;;;;;;;5045056;28;20056;-82
2021/12/10 11:40:58;;;;;;;10.70;7.53;;;;;;;;;;5028003;28;20045;-82
2021/12/10 11:43:54;;;;;;;10.05;7.10;;;;;;;;;;5028894;28;20347;-82
2021/12/10 11:46:30;;;;;;;14.07;9.07;;;;;;;;;;5011694;28;20053;-82
2021/12/10 11:49:05;;;;;;;10.70;8.02;;;;;;;;;;5028605;28;20049;-83
2021/12/10 11:51:34;;;;;;;10.23;7.65;;;;;;;;;;5041767;28;20084;-83
2021/12/10 11:54:20;;;;;;;10.25;7.95;;;;;;;;;;5048487;28;20535;-82
2021/12/10 11:56:48;;;;;;;10.20;7.20;;;;;;;;;;5047188;28;20136;-81
2021/12/10 11:59:16;;;;;;;9.75;6.97;;;;;;;;;;5048223;28;20061;-81
2021/12/10 12:01:48;;;;;;;11.38;6.97;;;;;;;;;;5046477;28;20056;-82
2021/12/10 12:04:23;;;;;;;9.65;7.13;;;;;;;;;;5048928;28;20832;-84
2021/12/10 12:07:09;;;;;;;9.07;7.75;;;;;;;;;;5046515;28;20159;-84
2021/12/10 12:09:39;;;;;;;8.27;6.88;;;;;;;;;;5048350;28;20040;-83
2021/12/10 12:12:12;;;;;;;8.55;7.18;;;;;;;;;;5048262;28;20037;-82
2021/12/10 12:14:44;;;;;;;11.38;7.03;;;;;;;;;;5047931;28;20052;-82
2021/12/10 12:17:27;;;;;;;9.23;7.40;;;;;;;;;;5032731;28;20064;-82
2021/12/10 12:19:53;;;;;;;13.63;7.32;;;;;;;;;;5027787;28;20054;-83
2021/12/10 12:25:10;;;;;;;11.63;6.97;;;;;;;;;;5028099;28;20072;-81
2021/12/10 12:27:36;;;;;;;9.45;6.72;;;;;;;;;;5010006;28;20045;-81
2021/12/10 12:30:06;;;;;;;9.80;7.53;;;;;;;;;;5028380;28;20160;-82
2021/12/10 12:32:36;;;;;;;9.25;7.30;;;;;;;;;;5026201;28;20050;-81
2021/12/10 12:35:33;;;;;;;10.48;7.00;;;;;;;;;;5027485;28;20037;-79
2021/12/10 12:38:10;;;;;;;11.25;6.78;;;;;;;;;;5010322;28;20432;-80
2021/12/10 12:40:37;;;;;;;11.10;6.82;;;;;;;;;;5014115;28;20049;-80
2021/12/10 12:43:06;;;;;;;10.88;7.43;;;;;;;;;;5001513;28;20099;-79
2021/12/10 12:45:33;;;;;;;8.68;6.50;;;;;;;;;;5019817;28;20037;-79
2021/12/10 12:47:59;;;;;;;10.98;6.50;;;;;;;;;;5042883;28;20069;-81
2021/12/10 12:50:27;;;;;;;9.25;6.25;;;;;;;;;;5025771;28;20084;-81
2021/12/10 12:52:55;;;;;;;12.05;6.60;;;;;;;;;;5026796;28;20090;-79
2021/12/10 12:55:27;;;;;;;14.40;7.00;;;;;;;;;;5028708;28;20045;-79
2021/12/10 12:57:56;;;;;;;10.20;7.40;;;;;;;;;;5026315;28;20033;-80
2021/12/10 13:00:25;;;;;;;9.60;6.90;;;;;;;;;;5043019;28;20045;-80
2021/12/10 13:02:57;;;;;;;12.13;7.88;;;;;;;;;;5025385;28;20306;-79
2021/12/10 13:05:31;;;;;;;11.85;8.98;;;;;;;;;;5020367;28;20053;-80
2021/12/10 13:07:57;;;;;;;;;;;;;;;;;;5007941;28;20061;-80
2021/12/10 13:10:26;;;;;;;15.13;9.40;;;;;;;;;;5017243;28;20270;-79
2021/12/10 13:13:09;;;;;;;20.13;11.25;;;;;;;;;;5021846;28;20085;-80
2021/12/10 13:15:35;;;;;;;14.25;9.43;;;;;;;;;;5021657;28;20073;-79
2021/12/10 13:18:05;;;;;;;14.23;8.73;;;;;;;;;;5020625;28;20091;-79
2021/12/10 13:20:33;;;;;;;12.55;7.35;;;;;;;;;;5021526;28;20186;-78
2021/12/10 13:23:02;;;;;;;13.48;8.98;;;;;;;;;;5025982;28;20041;-79
2021/12/10 13:25:29;;;;;;;13.25;7.32;;;;;;;;;;5025731;28;20049;-79
2021/12/10 13:28:00;;;;;;;12.57;8.30;;;;;;;;;;5024506;28;20068;-79
2021/12/10 13:30:50;;;;;;;10.70;8.05;;;;;;;;;;5028299;28;20049;-80
2021/12/10 13:33:21;;;;;;;14.85;7.38;;;;;;;;;;5020510;28;20144;-80
2021/12/10 13:35:47;;;;;;;10.52;7.35;;;;;;;;;;5027241;28;20474;-79
2021/12/10 13:38:14;;;;;;;13.23;8.30;;;;;;;;;;5026268;28;20045;-80
2021/12/10 13:40:42;;;;;;;10.55;7.95;;;;;;;;;;5026538;28;20045;-79
2021/12/10 13:43:09;;;;;;;13.50;8.40;;;;;;;;;;5026385;28;20084;-82
2021/12/10 13:45:37;;;;;;;11.98;8.13;;;;;;;;;;5027197;28;21057;-80
2021/12/10 13:48:05;;;;;;;11.75;8.13;;;;;;;;;;5026431;28;20420;-80
2021/12/10 13:50:33;;;;;;;13.65;8.32;;;;;;;;;;5023844;28;20172;-80
2021/12/10 13:53:03;;;;;;;16.13;9.55;;;;;;;;;;5025356;28;20053;-80
2021/12/10 13:55:41;;;;;;;13.77;9.25;;;;;;;;;;5025264;28;20461;-80
2021/12/10 13:58:10;;;;;;;13.43;8.95;;;;;;;;;;5024369;28;20053;-80
2021/12/10 14:00:37;;;;;;;12.73;8.80;;;;;;;;;;5024131;28;20072;-79
2021/12/10 14:03:04;;;;;;;13.40;8.65;;;;;;;;;;5023636;28;20049;-80
2021/12/10 14:05:36;;;;;;;12.32;7.80;;;;;;;;;;5025461;28;20045;-79
2021/12/10 14:08:09;;;;;;;17.17;7.90;;;;;;;;;;5024276;28;20052;-80
2021/12/10 14:10:37;;;;;;;13.68;8.60;;;;;;;;;;5025153;28;20400;-81
2021/12/10 14:13:05;;;;;;;14.13;8.70;;;;;;;;;;5044783;28;20083;-80
2021/12/10 14:15:40;;;;;;;13.18;8.85;;;;;;;;;;5033322;28;20516;-81
2021/12/10 14:18:15;;;;;;;13.95;9.55;;;;;;;;;;5033226;28;20050;-79
2021/12/10 14:20:46;;;;;;;18.35;12.70;;;;;;;;;;5028428;28;20041;-80
2021/12/10 14:23:21;;;;;;;17.05;10.95;;;;;;;;;;5045772;28;20049;-80
2021/12/10 14:25:52;;;;;;;27.92;16.17;;;;;;;;;;5029421;28;20097;-80
2021/12/10 14:28:20;;;;;;;14.30;9.30;;;;;;;;;;5031274;28;20085;-80
2021/12/10 14:30:52;;;;;;;24.98;16.27;;;;;;;;;;5029598;28;20048;-80
2021/12/10 14:33:22;;;;;;;14.52;8.82;;;;;;;;;;5028813;28;20107;-80
2021/12/10 14:36:07;;;;;;;13.95;9.50;;;;;;;;;;5030577;28;20041;-80
2021/12/10 14:38:36;;;;;;;13.43;8.73;;;;;;;;;;5028439;28;20056;-79
2021/12/10 14:41:07;;;;;;;12.38;8.68;;;;;;;;;;5030794;28;20440;-81